MSC Kia Ora — A8JG6 — position and weather

sailwx.info

Track history (hours):
 
Tides and Currents Weather Stations Pressure Air Temp Water Temp Dewpoint Dewpoint Depression Visibility Wind Speed Wind Dir Waves Ship Positions

MSC Kia Ora

Last reported at 2018-Jan-21 20:00 UTC. Time now 2018-Jan-21 20:30 UTC.
Position S 37°56' E 152°39'.

Length 148 m; draft 7.6 m.

Type: Ship (hazmat cat D). MMSI: 636017700.

Date/timePositionNaut miles runAvg speedWind from/ knotsBaromVisibWave heightAir tempDewpointWater temp
2018-Jan-21 20:00S 37°56' E 152°39'713.4
2018-Jan-21 19:30S 37°54' E 152°47'1213.8
2018-Jan-21 18:36S 37°52' E 153°02'313.9
2018-Jan-21 18:24S 37°51' E 153°06'714.2
2018-Jan-21 17:54S 37°50' E 153°15'614.1
2018-Jan-21 17:29S 37°49' E 153°22'1413.7
2018-Jan-21 16:30S 37°47' E 153°39'  
2018-Jan-18 04:13S 36°18' E 174°60'2 9.2
2018-Jan-18 04:00S 36°20' E 174°60'5 9.2
2018-Jan-18 03:30S 36°25' E 174°60'5 9.1
2018-Jan-18 03:00S 36°30' E 174°60'4 8.7
2018-Jan-18 02:30S 36°34' E 175°00'5 9.2
2018-Jan-18 02:00S 36°38' E 174°57'5 9.4
2018-Jan-18 01:30S 36°41' E 174°53'5 9.5
2018-Jan-18 01:00S 36°45' E 174°50'6 5.8
2018-Jan-18 00:00S 36°51' E 174°47'0 0.0
2018-Jan-17 23:46S 36°51' E 174°47'  
2018-Jan-12 14:56S 36°50' E 174°46'0 0.0
2018-Jan-12 13:27S 36°50' E 174°46'0 0.0
2018-Jan-12 13:00S 36°50' E 174°46'0 0.0
2018-Jan-12 12:29S 36°50' E 174°46'0 0.0
2018-Jan-12 11:47S 36°50' E 174°46'0 0.0
2018-Jan-12 09:48S 36°50' E 174°46'0 0.0
2018-Jan-12 05:18S 36°50' E 174°46'0 0.0
2018-Jan-11 23:18S 36°50' E 174°46'0 0.0
2018-Jan-11 22:59S 36°50' E 174°46'0 0.0
2018-Jan-11 22:28S 36°50' E 174°46'0 0.0
2018-Jan-11 22:00S 36°50' E 174°46'0 0.0
2018-Jan-11 21:30S 36°50' E 174°46'0 0.0
2018-Jan-11 21:00S 36°50' E 174°46'0 0.0
2018-Jan-11 20:30S 36°50' E 174°46'0 0.0
2018-Jan-11 20:01S 36°50' E 174°46'  
Track history (hours):
 
Tides and Currents Weather Stations Pressure Air Temp Water Temp Dewpoint Dewpoint Depression Visibility Wind Speed Wind Dir Waves Ship Positions

MSC Kia Ora

Last reported at 2018-Jan-21 20:00 UTC. Time now 2018-Jan-21 20:30 UTC.
Position S 37°56' E 152°39'.

Length 148 m; draft 7.6 m.

Type: Ship (hazmat cat D). MMSI: 636017700.

Date/timePositionNaut miles runAvg speedWind from/ knotsBaromVisibWave heightAir tempDewpointWater temp
2018-Jan-21 20:00S 37°56' E 152°39'713.4
2018-Jan-21 19:30S 37°54' E 152°47'1213.8
2018-Jan-21 18:36S 37°52' E 153°02'313.9
2018-Jan-21 18:24S 37°51' E 153°06'714.2
2018-Jan-21 17:54S 37°50' E 153°15'614.1
2018-Jan-21 17:29S 37°49' E 153°22'1413.7
2018-Jan-21 16:30S 37°47' E 153°39'  
2018-Jan-18 04:13S 36°18' E 174°60'2 9.2
2018-Jan-18 04:00S 36°20' E 174°60'5 9.2
2018-Jan-18 03:30S 36°25' E 174°60'5 9.1
2018-Jan-18 03:00S 36°30' E 174°60'4 8.7
2018-Jan-18 02:30S 36°34' E 175°00'5 9.2
2018-Jan-18 02:00S 36°38' E 174°57'5 9.4
2018-Jan-18 01:30S 36°41' E 174°53'5 9.5
2018-Jan-18 01:00S 36°45' E 174°50'6 5.8
2018-Jan-18 00:00S 36°51' E 174°47'0 0.0
2018-Jan-17 23:46S 36°51' E 174°47'  
2018-Jan-12 14:56S 36°50' E 174°46'0 0.0
2018-Jan-12 13:27S 36°50' E 174°46'0 0.0
2018-Jan-12 13:00S 36°50' E 174°46'0 0.0
2018-Jan-12 12:29S 36°50' E 174°46'0 0.0
2018-Jan-12 11:47S 36°50' E 174°46'0 0.0
2018-Jan-12 09:48S 36°50' E 174°46'0 0.0
2018-Jan-12 05:18S 36°50' E 174°46'0 0.0
2018-Jan-11 23:18S 36°50' E 174°46'0 0.0
2018-Jan-11 22:59S 36°50' E 174°46'0 0.0
2018-Jan-11 22:28S 36°50' E 174°46'0 0.0
2018-Jan-11 22:00S 36°50' E 174°46'0 0.0
2018-Jan-11 21:30S 36°50' E 174°46'0 0.0
2018-Jan-11 21:00S 36°50' E 174°46'0 0.0
2018-Jan-11 20:30S 36°50' E 174°46'0 0.0
2018-Jan-11 20:01S 36°50' E 174°46'  

Dump ship's entire track history